Time;durP1;ratioP1;P1;durP2;ratioP2;P2;SDS_P1;SDS_P2;PMS_P1;PMS_P2;Temp;Humidity;BMP_temperature;BMP_pressure;BME280_temperature;BME280_humidity;BME280_pressure;Samples;Min_cycle;Max_cycle;Signal;HPM_P1;HPM_P2
2024/01/25 00:01:34;;;;;;;12.18;2.22;;;;;;;7.94;100.00;98438.91;5036610;28;20508;-62
2024/01/25 00:04:01;;;;;;;11.93;2.15;;;;;;;7.89;100.00;98430.59;5035242;28;20045;-62
2024/01/25 00:06:28;;;;;;;10.95;1.95;;;;;;;7.89;100.00;98419.00;5038403;28;20517;-62
2024/01/25 00:08:54;;;;;;;14.02;2.67;;;;;;;7.98;100.00;98433.06;5040795;28;20442;-62
2024/01/25 00:11:21;;;;;;;19.98;2.95;;;;;;;8.03;100.00;98433.28;5035584;28;20040;-62
2024/01/25 00:13:47;;;;;;;14.65;2.97;;;;;;;8.00;100.00;98420.22;5039086;28;20102;-61
2024/01/25 00:16:14;;;;;;;15.80;2.42;;;;;;;8.06;100.00;98425.63;5029555;28;20041;-61
2024/01/25 00:18:40;;;;;;;14.48;2.20;;;;;;;8.05;100.00;98423.13;5037804;28;20040;-62
2024/01/25 00:21:07;;;;;;;13.30;2.40;;;;;;;8.10;100.00;98431.41;5039215;28;20037;-62
2024/01/25 00:23:34;;;;;;;20.95;3.50;;;;;;;8.11;100.00;98426.84;5039003;28;20431;-63
2024/01/25 00:26:00;;;;;;;13.93;2.90;;;;;;;8.10;100.00;98423.31;5038960;28;20487;-62
2024/01/25 00:28:28;;;;;;;16.25;2.42;;;;;;;8.10;100.00;98419.81;5042287;28;20598;-62
2024/01/25 00:30:55;;;;;;;18.90;2.67;;;;;;;8.13;100.00;98430.16;5036870;28;20037;-62
2024/01/25 00:33:22;;;;;;;14.27;2.95;;;;;;;8.16;100.00;98425.19;5038214;28;20056;-62
2024/01/25 00:35:49;;;;;;;14.18;2.30;;;;;;;8.18;100.00;98423.09;5040612;28;20091;-62
2024/01/25 00:38:16;;;;;;;16.23;2.00;;;;;;;8.24;100.00;98415.19;5038247;28;20707;-61
2024/01/25 00:40:43;;;;;;;18.17;2.88;;;;;;;8.31;100.00;98421.41;5041025;28;20033;-62
2024/01/25 00:43:10;;;;;;;16.30;2.70;;;;;;;8.24;100.00;98421.44;5042020;28;20041;-61
2024/01/25 00:45:37;;;;;;;21.70;3.03;;;;;;;8.21;100.00;98413.75;5043109;28;20638;-63
2024/01/25 00:48:04;;;;;;;16.42;2.50;;;;;;;8.24;100.00;98415.19;5035419;28;20033;-63
2024/01/25 00:50:31;;;;;;;16.50;2.58;;;;;;;8.21;100.00;98413.75;5040182;28;20550;-62
2024/01/25 00:52:58;;;;;;;15.20;3.35;;;;;;;8.15;100.00;98412.72;5042183;28;20193;-61
2024/01/25 00:55:25;;;;;;;9.25;2.50;;;;;;;8.13;100.00;98412.13;5033292;28;20646;-63
2024/01/25 00:57:52;;;;;;;16.08;2.72;;;;;;;8.15;100.00;98417.31;5031236;28;20504;-62
2024/01/25 01:00:19;;;;;;;16.75;2.80;;;;;;;8.17;100.00;98410.66;5034001;28;20048;-62
2024/01/25 01:02:46;;;;;;;19.27;2.28;;;;;;;8.17;100.00;98410.66;5035459;28;20527;-61
2024/01/25 01:05:14;;;;;;;10.48;2.78;;;;;;;8.11;100.00;98419.56;5037999;28;20046;-62
2024/01/25 01:07:41;;;;;;;16.30;2.53;;;;;;;8.14;100.00;98416.47;5030511;28;20049;-62
2024/01/25 01:10:08;;;;;;;14.75;2.30;;;;;;;8.14;100.00;98404.88;5042704;28;20515;-61
2024/01/25 01:12:36;;;;;;;19.17;2.58;;;;;;;8.14;100.00;98423.75;5032688;28;20056;-62
2024/01/25 01:15:03;;;;;;;16.88;2.50;;;;;;;8.16;100.00;98414.41;5044108;28;20120;-62
2024/01/25 01:17:30;;;;;;;12.45;2.15;;;;;;;8.17;100.00;98409.81;5029306;28;20044;-62
2024/01/25 01:19:57;;;;;;;13.70;3.03;;;;;;;8.15;100.00;98399.22;5046369;28;20131;-62
2024/01/25 01:22:23;;;;;;;16.88;2.13;;;;;;;8.28;100.00;98400.25;5043881;28;20129;-63
2024/01/25 01:24:50;;;;;;;19.48;3.20;;;;;;;8.27;100.00;98404.81;5038714;28;20516;-62
2024/01/25 01:27:17;;;;;;;12.77;2.22;;;;;;;8.24;100.00;98396.31;5036206;28;20094;-62
2024/01/25 01:29:43;;;;;;;15.93;2.63;;;;;;;8.28;100.00;98395.69;5039697;28;20044;-62
2024/01/25 01:32:10;;;;;;;17.98;3.05;;;;;;;8.22;100.00;98387.59;5037454;28;20057;-62
2024/01/25 01:34:36;;;;;;;14.73;2.20;;;;;;;8.09;100.00;98393.84;5034407;28;20224;-62
2024/01/25 01:37:03;;;;;;;12.32;1.83;;;;;;;8.08;100.00;98387.66;5029361;28;20053;-62
2024/01/25 01:39:30;;;;;;;20.65;2.72;;;;;;;8.01;100.00;98406.53;5031611;28;20524;-63
2024/01/25 01:41:56;;;;;;;11.88;2.05;;;;;;;8.02;100.00;98412.75;5030783;28;20107;-63
2024/01/25 01:44:23;;;;;;;19.92;3.72;;;;;;;8.03;100.00;98398.22;5036182;28;20120;-62
2024/01/25 01:46:50;;;;;;;11.02;2.03;;;;;;;8.05;100.00;98399.69;5037475;28;20513;-63
2024/01/25 01:49:17;;;;;;;10.95;1.80;;;;;;;8.01;100.00;98400.31;5029083;28;20045;-62
2024/01/25 01:51:44;;;;;;;17.17;2.13;;;;;;;7.97;100.00;98396.38;5040314;28;20045;-61
2024/01/25 01:54:11;;;;;;;15.05;2.70;;;;;;;7.99;100.00;98410.50;5029444;28;20047;-61
2024/01/25 01:56:41;;;;;;;13.18;2.50;;;;;;;7.96;100.00;98402.81;5031585;28;20626;-61
2024/01/25 01:59:11;;;;;;;16.92;2.85;;;;;;;7.93;100.00;98394.09;5037475;28;20102;-61
2024/01/25 02:01:38;;;;;;;13.57;2.33;;;;;;;7.90;100.00;98391.81;5038811;28;20120;-61
2024/01/25 02:04:05;;;;;;;15.00;2.90;;;;;;;7.89;100.00;98390.16;5035809;28;20041;-62
2024/01/25 02:06:33;;;;;;;15.23;2.58;;;;;;;7.90;100.00;98402.63;5040247;28;20424;-61
2024/01/25 02:09:00;;;;;;;13.95;2.13;;;;;;;8.01;100.00;98398.44;5033629;28;20123;-62
2024/01/25 02:11:28;;;;;;;14.05;2.75;;;;;;;7.92;100.00;98395.13;5036253;28;20041;-61
2024/01/25 02:13:55;;;;;;;9.00;2.38;;;;;;;8.02;100.00;98397.41;5031665;28;20042;-61
2024/01/25 02:16:21;;;;;;;12.40;2.58;;;;;;;7.93;100.00;98380.59;5032116;28;20056;-60
2024/01/25 02:18:49;;;;;;;11.10;2.05;;;;;;;7.94;100.00;98378.75;5027896;28;20044;-62
2024/01/25 02:21:16;;;;;;;9.38;2.45;;;;;;;7.93;100.00;98380.59;5027675;28;20099;-62
2024/01/25 02:23:43;;;;;;;15.95;2.30;;;;;;;7.96;100.00;98376.66;5021514;28;20049;-61
2024/01/25 02:26:09;;;;;;;14.55;3.17;;;;;;;7.97;100.00;98382.88;5032190;28;20125;-62
2024/01/25 02:28:36;;;;;;;11.20;2.38;;;;;;;8.02;100.00;98394.72;5036772;28;20668;-63
2024/01/25 02:31:03;;;;;;;13.18;2.70;;;;;;;7.91;100.00;98389.94;5036925;28;20045;-62
2024/01/25 02:33:29;;;;;;;12.27;2.15;;;;;;;7.87;100.00;98400.31;5030649;28;20075;-61
2024/01/25 02:35:57;;;;;;;12.30;2.03;;;;;;;7.90;100.00;98399.06;5028575;28;20045;-61
2024/01/25 02:38:24;;;;;;;19.38;2.60;;;;;;;7.86;100.00;98395.13;5040042;28;20037;-62
2024/01/25 02:40:50;;;;;;;13.55;2.33;;;;;;;7.82;100.00;98389.34;5033842;28;20061;-63
2024/01/25 02:43:17;;;;;;;19.33;2.78;;;;;;;7.79;100.00;98387.06;5031250;28;20116;-62
2024/01/25 02:45:44;;;;;;;17.58;2.28;;;;;;;7.86;100.00;98387.03;5035466;28;20090;-61
2024/01/25 02:48:10;;;;;;;17.38;2.42;;;;;;;7.76;100.00;98400.94;5035837;28;20120;-62
2024/01/25 02:50:37;;;;;;;13.55;2.15;;;;;;;7.72;100.00;98381.66;5035927;28;20053;-62
2024/01/25 02:53:05;;;;;;;13.45;3.00;;;;;;;7.74;100.00;98392.25;5025231;28;20497;-62
2024/01/25 02:55:31;;;;;;;12.20;1.83;;;;;;;7.74;100.00;98384.16;5029587;28;20113;-62
2024/01/25 02:57:58;;;;;;;14.35;2.38;;;;;;;7.71;100.00;98387.25;5035732;28;20088;-62
2024/01/25 03:00:24;;;;;;;13.25;2.33;;;;;;;7.71;100.00;98392.66;5033049;28;20041;-62
2024/01/25 03:02:51;;;;;;;14.43;2.47;;;;;;;7.65;100.00;98389.75;5040873;28;20750;-62
2024/01/25 03:05:18;;;;;;;11.43;2.05;;;;;;;7.66;100.00;98386.03;5030665;28;20041;-62
2024/01/25 03:07:45;;;;;;;16.80;2.45;;;;;;;7.65;100.00;98386.22;5031596;28;20033;-61
2024/01/25 03:10:13;;;;;;;12.05;2.00;;;;;;;7.65;100.00;98399.69;5043778;28;20037;-62
2024/01/25 03:12:39;;;;;;;10.55;2.25;;;;;;;7.65;100.00;98397.00;5028762;28;20049;-62
2024/01/25 03:15:07;;;;;;;17.92;2.83;;;;;;;7.63;100.00;98393.72;5041219;28;20040;-62
2024/01/25 03:17:33;;;;;;;10.77;1.98;;;;;;;7.54;100.00;98396.59;5039827;28;20098;-59
2024/01/25 03:20:00;;;;;;;16.00;2.60;;;;;;;7.48;100.00;98402.81;5036971;28;20099;-62
2024/01/25 03:22:27;;;;;;;20.02;2.80;;;;;;;7.44;100.00;98419.59;5038799;28;20047;-62
2024/01/25 03:24:53;;;;;;;13.95;2.53;;;;;;;7.45;100.00;98410.47;5033989;28;20067;-62
2024/01/25 03:27:20;;;;;;;12.15;2.55;;;;;;;7.49;100.00;98414.44;5047640;28;20041;-61
2024/01/25 03:29:47;;;;;;;14.05;2.47;;;;;;;7.45;100.00;98421.25;5033292;28;20057;-62
2024/01/25 03:32:13;;;;;;;13.55;1.77;;;;;;;7.48;100.00;98421.66;5043595;28;20041;-62
2024/01/25 03:34:40;;;;;;;13.88;2.45;;;;;;;7.51;100.00;98431.19;5041721;28;20033;-62
2024/01/25 03:37:07;;;;;;;9.52;1.95;;;;;;;7.45;100.00;98429.34;5030483;28;20041;-60
2024/01/25 03:39:33;;;;;;;14.77;2.78;;;;;;;7.42;100.00;98435.97;5039713;28;20037;-60
2024/01/25 03:42:00;;;;;;;15.73;2.78;;;;;;;7.38;100.00;98440.94;5044878;28;20424;-60
2024/01/25 03:44:26;;;;;;;16.92;2.10;;;;;;;7.39;100.00;98437.22;5036547;28;20045;-60
2024/01/25 03:46:53;;;;;;;11.27;2.13;;;;;;;7.35;100.00;98441.34;5040133;28;20098;-61
2024/01/25 03:49:22;;;;;;;16.67;2.97;;;;;;;7.31;100.00;98440.09;5045362;28;20033;-61
2024/01/25 03:51:50;;;;;;;10.80;2.00;;;;;;;7.34;100.00;98445.06;5036218;28;20052;-61
2024/01/25 03:54:17;;;;;;;11.65;1.92;;;;;;;7.40;100.00;98452.34;5042164;28;20107;-59
2024/01/25 03:56:43;;;;;;;10.25;2.15;;;;;;;7.36;100.00;98447.56;5040283;28;20045;-61
2024/01/25 03:59:12;;;;;;;16.33;2.00;;;;;;;7.31;100.00;98453.56;5035147;28;20120;-61
2024/01/25 04:01:43;;;;;;;12.70;2.47;;;;;;;7.27;100.00;98463.09;5045847;28;20067;-61
2024/01/25 04:04:10;;;;;;;15.77;2.42;;;;;;;7.19;100.00;98463.28;5037211;28;20041;-62
2024/01/25 04:06:40;;;;;;;19.85;2.35;;;;;;;7.17;100.00;98471.56;5038351;28;20037;-60
2024/01/25 04:09:07;;;;;;;13.20;2.47;;;;;;;7.15;100.00;98469.06;5047929;28;20051;-61
2024/01/25 04:11:34;;;;;;;17.15;2.53;;;;;;;7.13;100.00;98470.31;5034035;28;20449;-61
2024/01/25 04:14:00;;;;;;;15.05;2.38;;;;;;;7.11;100.00;98473.19;5040551;28;20476;-61
2024/01/25 04:16:27;;;;;;;13.45;2.35;;;;;;;7.09;100.00;98477.97;5034611;28;20128;-61
2024/01/25 04:18:54;;;;;;;11.38;2.20;;;;;;;7.10;100.00;98468.84;5039590;28;20073;-61
2024/01/25 04:21:21;;;;;;;16.35;3.05;;;;;;;7.10;100.00;98468.84;5034688;28;20045;-62
2024/01/25 04:23:47;;;;;;;13.77;1.98;;;;;;;7.06;100.00;98472.97;5036714;28;20449;-61
2024/01/25 04:26:16;;;;;;;12.98;2.63;;;;;;;7.07;100.00;98481.91;5038778;28;20099;-60
2024/01/25 04:28:42;;;;;;;13.75;2.83;;;;;;;7.05;100.00;98471.31;5040591;28;20569;-61
2024/01/25 04:31:09;;;;;;;15.50;2.97;;;;;;;7.01;100.00;98462.00;5034085;28;20467;-60
2024/01/25 04:33:38;;;;;;;13.60;2.50;;;;;;;7.00;100.00;98469.22;5047906;28;20754;-61
2024/01/25 04:36:05;;;;;;;13.90;2.00;;;;;;;7.01;100.00;98473.56;5039490;28;20064;-60
2024/01/25 04:38:31;;;;;;;13.65;2.22;;;;;;;7.06;100.00;98477.53;5031485;28;20051;-61
2024/01/25 04:40:58;;;;;;;10.13;2.30;;;;;;;7.06;100.00;98480.22;5033536;28;20103;-62
2024/01/25 04:43:25;;;;;;;17.05;2.28;;;;;;;7.00;100.00;98476.47;5044792;28;20171;-61
2024/01/25 04:45:51;;;;;;;16.52;2.72;;;;;;;6.99;100.00;98485.56;5037893;28;20045;-60
2024/01/25 04:48:18;;;;;;;12.18;2.40;;;;;;;6.99;100.00;98501.75;5030331;28;20029;-60
2024/01/25 04:50:44;;;;;;;13.55;2.63;;;;;;;6.99;100.00;98507.97;5039704;28;20048;-60
2024/01/25 04:53:11;;;;;;;12.77;2.38;;;;;;;6.96;100.00;98496.78;5041835;28;20041;-61
2024/01/25 04:55:37;;;;;;;13.40;2.17;;;;;;;6.93;100.00;98497.97;5034069;28;20048;-61
2024/01/25 04:58:04;;;;;;;14.95;2.45;;;;;;;6.91;100.00;98491.97;5036410;28;20119;-60
2024/01/25 05:00:31;;;;;;;17.73;2.60;;;;;;;6.87;100.00;98493.41;5028466;28;20087;-60
2024/01/25 05:02:58;;;;;;;16.90;3.35;;;;;;;6.74;100.00;98503.06;5026976;28;20048;-60
2024/01/25 05:05:24;;;;;;;12.20;2.30;;;;;;;6.68;100.00;98505.72;5027966;28;20049;-61
2024/01/25 05:07:51;;;;;;;13.65;2.65;;;;;;;6.64;100.00;98514.19;5041467;28;20040;-61
2024/01/25 05:10:18;;;;;;;18.15;2.53;;;;;;;6.58;100.00;98516.84;5041045;28;20041;-60
2024/01/25 05:12:44;;;;;;;12.52;2.40;;;;;;;6.54;100.00;98527.19;5029531;28;20040;-61
2024/01/25 05:15:11;;;;;;;17.65;2.47;;;;;;;6.45;100.00;98521.13;5042838;28;20033;-61
2024/01/25 05:17:38;;;;;;;16.45;2.63;;;;;;;6.39;100.00;98519.22;5030495;28;20034;-61
2024/01/25 05:20:05;;;;;;;16.77;2.30;;;;;;;6.33;100.00;98526.22;5032982;28;20116;-61
2024/01/25 05:22:32;;;;;;;16.73;3.08;;;;;;;6.36;100.00;98531.22;5035427;28;20035;-59
2024/01/25 05:24:58;;;;;;;15.52;2.50;;;;;;;6.33;100.00;98536.13;5039602;28;20843;-61
2024/01/25 05:27:25;;;;;;;13.85;2.33;;;;;;;6.29;100.00;98529.47;5039562;28;20076;-60
2024/01/25 05:29:52;;;;;;;13.15;2.92;;;;;;;6.24;100.00;98528.22;5026826;28;20124;-62
2024/01/25 05:32:18;;;;;;;12.25;2.53;;;;;;;6.22;100.00;98522.19;5040028;28;20033;-62
2024/01/25 05:34:45;;;;;;;19.75;3.15;;;;;;;6.17;100.00;98519.28;5038498;28;20037;-63
2024/01/25 05:37:11;;;;;;;13.77;2.38;;;;;;;6.12;100.00;98521.72;5037562;28;20639;-62
2024/01/25 05:39:38;;;;;;;14.23;2.50;;;;;;;6.14;100.00;98526.88;5033011;28;20049;-62
2024/01/25 05:42:05;;;;;;;14.98;2.67;;;;;;;6.07;100.00;98529.53;5036216;28;20554;-62
2024/01/25 05:44:31;;;;;;;11.98;1.73;;;;;;;6.01;100.00;98533.78;5044039;28;20400;-64
2024/01/25 05:46:58;;;;;;;10.13;1.88;;;;;;;6.02;100.00;98538.16;5040596;28;20115;-62
2024/01/25 05:49:24;;;;;;;14.82;3.00;;;;;;;5.98;100.00;98540.38;5042416;28;20115;-62
2024/01/25 05:51:51;;;;;;;10.75;2.13;;;;;;;6.03;100.00;98538.97;5041073;28;20051;-62
2024/01/25 05:54:18;;;;;;;15.10;2.67;;;;;;;6.03;100.00;98542.53;5037682;28;20048;-62
2024/01/25 05:56:44;;;;;;;17.23;2.13;;;;;;;5.94;100.00;98531.03;5026147;28;20126;-62
2024/01/25 05:59:11;;;;;;;16.77;2.47;;;;;;;5.87;100.00;98527.47;5035952;28;20041;-62
2024/01/25 06:01:37;;;;;;;13.15;2.40;;;;;;;5.91;100.00;98523.38;5033715;28;20052;-62
2024/01/25 06:04:04;;;;;;;14.35;2.58;;;;;;;5.80;100.00;98530.09;5031583;28;20517;-61
2024/01/25 06:06:30;;;;;;;15.73;3.13;;;;;;;5.76;100.00;98526.13;5040633;28;20046;-63
2024/01/25 06:08:57;;;;;;;14.82;2.40;;;;;;;5.68;100.00;98529.75;5029897;28;20037;-62
2024/01/25 06:11:37;;;;;;;16.67;3.25;;;;;;;5.64;100.00;98539.22;5033171;28;20520;-62
2024/01/25 06:14:08;;;;;;;22.63;3.38;;;;;;;5.64;100.00;98524.97;5033270;28;20048;-62
2024/01/25 06:16:35;;;;;;;14.65;2.53;;;;;;;5.60;100.00;98532.56;5034836;28;20037;-62
2024/01/25 06:19:03;;;;;;;16.65;2.60;;;;;;;5.62;100.00;98537.75;5042621;28;20041;-62
2024/01/25 06:21:30;;;;;;;15.10;2.63;;;;;;;5.57;100.00;98527.59;5031945;28;20120;-62
2024/01/25 06:23:57;;;;;;;19.50;2.90;;;;;;;5.53;100.00;98534.38;5030799;28;20049;-61
2024/01/25 06:26:23;;;;;;;12.80;2.13;;;;;;;5.47;100.00;98546.72;5033479;28;20500;-62
2024/01/25 06:28:50;;;;;;;18.25;2.67;;;;;;;5.46;100.00;98537.81;5034349;28;20040;-61
2024/01/25 06:31:16;;;;;;;16.33;2.30;;;;;;;5.41;100.00;98534.88;5036210;28;20046;-61
2024/01/25 06:33:46;;;;;;;16.52;2.83;;;;;;;5.46;100.00;98542.38;5032318;28;20041;-61
2024/01/25 06:36:16;;;;;;;15.27;2.70;;;;;;;5.40;100.00;98543.09;5044237;28;20052;-62
2024/01/25 06:38:43;;;;;;;14.35;2.70;;;;;;;5.50;100.00;98532.91;5036599;28;20072;-61
2024/01/25 06:41:09;;;;;;;16.48;2.95;;;;;;;5.45;100.00;98540.69;5033960;28;20044;-62
2024/01/25 06:43:36;;;;;;;13.25;2.40;;;;;;;5.40;100.00;98532.34;5031200;28;20517;-62
2024/01/25 06:46:03;;;;;;;13.38;2.53;;;;;;;5.40;100.00;98521.63;5042537;28;20041;-61
2024/01/25 06:48:29;;;;;;;19.23;3.08;;;;;;;5.42;100.00;98516.91;5035409;28;20145;-61
2024/01/25 06:50:56;;;;;;;22.98;3.45;;;;;;;5.36;100.00;98531.06;5033601;28;20037;-61
2024/01/25 06:53:23;;;;;;;16.20;2.97;;;;;;;5.33;100.00;98527.75;5042658;28;20044;-62
2024/01/25 06:55:49;;;;;;;20.08;3.38;;;;;;;5.26;100.00;98528.69;5037210;28;20131;-61
2024/01/25 06:58:16;;;;;;;12.27;2.58;;;;;;;5.19;100.00;98529.44;5037009;28;20060;-61
2024/01/25 07:00:44;;;;;;;20.45;3.20;;;;;;;5.25;100.00;98529.72;5037903;28;20033;-62
2024/01/25 07:03:12;;;;;;;17.17;3.08;;;;;;;5.19;100.00;98542.03;5034807;28;20045;-62
2024/01/25 07:05:39;;;;;;;17.58;2.92;;;;;;;5.17;100.00;98560.19;5041877;28;20056;-62
2024/01/25 07:08:08;;;;;;;8.90;2.60;;;;;;;5.02;100.00;98566.41;5038196;28;20048;-62
2024/01/25 07:10:35;;;;;;;13.43;2.67;;;;;;;4.87;100.00;98571.78;5036134;28;20509;-62
2024/01/25 07:13:01;;;;;;;16.48;2.63;;;;;;;4.70;100.00;98573.81;5036660;28;20513;-64
2024/01/25 07:15:28;;;;;;;11.52;2.83;;;;;;;4.60;100.00;98575.94;5038666;28;20068;-61
2024/01/25 07:17:55;;;;;;;11.35;2.60;;;;;;;4.44;100.00;98569.72;5038870;28;20579;-65
2024/01/25 07:20:21;;;;;;;8.77;1.73;;;;;;;4.29;100.00;98575.06;5039705;28;20041;-66
2024/01/25 07:22:50;;;;;;;15.15;2.83;;;;;;;4.28;100.00;98581.44;5027810;28;20037;-66
2024/01/25 07:25:17;;;;;;;9.93;3.15;;;;;;;4.25;100.00;98579.13;5032863;28;20045;-65
2024/01/25 07:27:45;;;;;;;14.45;2.45;;;;;;;4.14;100.00;98583.91;5033663;28;20042;-66
2024/01/25 07:30:13;;;;;;;17.80;3.78;;;;;;;4.05;100.00;98584.16;5035511;28;20080;-66
2024/01/25 07:32:42;;;;;;;12.23;2.47;;;;;;;3.98;100.00;98584.03;5044936;28;20411;-67
2024/01/25 07:35:12;;;;;;;19.35;2.90;;;;;;;3.84;100.00;98589.13;5035284;28;20505;-66
2024/01/25 07:37:42;;;;;;;14.70;3.47;;;;;;;3.71;100.00;98588.88;5037322;28;20037;-66
2024/01/25 07:40:09;;;;;;;14.50;4.00;;;;;;;3.62;100.00;98588.94;5037290;28;20538;-65
2024/01/25 07:42:36;;;;;;;12.68;3.38;;;;;;;3.47;100.00;98591.53;5035243;28;20111;-66
2024/01/25 07:45:04;;;;;;;12.20;3.70;;;;;;;3.46;100.00;98597.91;5034392;28;20029;-67
2024/01/25 07:47:30;;;;;;;19.98;3.83;;;;;;;3.50;100.00;98603.72;5036199;28;20548;-66
2024/01/25 07:49:57;;;;;;;18.67;3.75;;;;;;;3.53;100.00;98613.28;5040607;28;20049;-67
2024/01/25 07:52:23;;;;;;;20.77;4.15;;;;;;;3.64;100.00;98613.72;5045121;28;20690;-66
2024/01/25 07:54:53;;;;;;;17.00;3.83;;;;;;;3.61;100.00;98616.75;5042820;28;20037;-65
2024/01/25 07:57:20;;;;;;;13.07;3.63;;;;;;;3.57;100.00;98609.25;5037521;28;20045;-65
2024/01/25 07:59:47;;;;;;;18.20;4.03;;;;;;;3.72;100.00;98602.09;5039103;28;20052;-65
2024/01/25 08:02:14;;;;;;;17.00;4.07;;;;;;;3.86;100.00;98602.34;5038197;28;20045;-66
2024/01/25 08:04:44;;;;;;;9.95;4.03;;;;;;;4.07;100.00;98599.03;5044033;28;20134;-66
2024/01/25 08:07:11;;;;;;;15.57;3.70;;;;;;;4.27;100.00;98599.38;5040592;28;20768;-53
2024/01/25 08:09:38;;;;;;;25.08;4.57;;;;;;;4.41;100.00;98591.53;5045833;28;20527;-49
2024/01/25 08:12:05;;;;;;;13.38;2.80;;;;;;;4.48;100.00;98588.97;5032483;28;20049;-51
2024/01/25 08:14:31;;;;;;;20.08;3.78;;;;;;;4.54;100.00;98593.59;5038000;28;20033;-45
2024/01/25 08:16:58;;;;;;;18.45;3.50;;;;;;;4.69;100.00;98590.94;5032181;28;20052;-55
2024/01/25 08:19:25;;;;;;;18.70;3.90;;;;;;;4.86;100.00;98586.22;5033865;28;20055;-55
2024/01/25 08:21:52;;;;;;;15.95;2.67;;;;;;;5.05;100.00;98574.09;5037329;28;20041;-54
2024/01/25 08:24:18;;;;;;;16.50;3.15;;;;;;;5.16;100.00;98571.97;5035322;28;20065;-53
2024/01/25 08:26:45;;;;;;;14.00;2.60;;;;;;;5.24;100.00;98569.19;5031677;28;20588;-52
2024/01/25 08:29:11;;;;;;;17.58;4.20;;;;;;;5.40;100.00;98565.44;5036013;28;20045;-54
2024/01/25 08:31:38;;;;;;;20.58;2.05;;;;;;;5.68;100.00;98555.81;5025682;28;20049;-54
2024/01/25 08:34:05;;;;;;;10.73;2.17;;;;;;;5.90;100.00;98558.50;5032139;28;20034;-55
2024/01/25 08:36:32;;;;;;;10.95;2.50;;;;;;;6.05;100.00;98564.66;5028126;28;20049;-56
2024/01/25 08:38:59;;;;;;;18.58;2.65;;;;;;;6.14;100.00;98562.69;5041463;28;20679;-52
2024/01/25 08:41:25;;;;;;;20.67;3.30;;;;;;;6.21;100.00;98557.34;5035134;28;20072;-52
2024/01/25 08:43:52;;;;;;;16.85;3.17;;;;;;;6.27;100.00;98561.97;5035731;28;20069;-51
2024/01/25 08:46:18;;;;;;;12.75;2.50;;;;;;;6.36;100.00;98565.34;5035860;28;20029;-51
2024/01/25 08:48:45;;;;;;;14.18;2.80;;;;;;;6.43;100.00;98568.91;5032865;28;20045;-54
2024/01/25 08:51:12;;;;;;;14.38;2.33;;;;;;;6.49;100.00;98575.38;5039290;28;20546;-47
2024/01/25 08:53:38;;;;;;;13.18;2.63;;;;;;;6.52;100.00;98574.97;5035544;28;20037;-51
2024/01/25 08:56:06;;;;;;;19.13;3.17;;;;;;;6.55;100.00;98577.28;5035633;28;20059;-50
2024/01/25 08:58:32;;;;;;;17.20;2.22;;;;;;;6.63;100.00;98585.22;5036066;28;20057;-68
2024/01/25 09:00:59;;;;;;;9.93;2.00;;;;;;;6.67;100.00;98591.03;5039919;28;20107;-65
2024/01/25 09:03:26;;;;;;;14.35;2.60;;;;;;;6.75;100.00;98593.56;5030888;28;20535;-69
2024/01/25 09:05:52;;;;;;;13.02;3.13;;;;;;;6.83;100.00;98594.44;5037299;28;20500;-65
2024/01/25 09:08:19;;;;;;;11.32;2.40;;;;;;;6.91;100.00;98602.38;5034355;28;20053;-65
2024/01/25 09:10:46;;;;;;;10.80;2.15;;;;;;;6.97;100.00;98616.91;5028310;28;20053;-67
2024/01/25 09:13:13;;;;;;;14.85;2.65;;;;;;;6.99;100.00;98613.00;5025901;28;20061;-69
2024/01/25 09:15:40;;;;;;;12.15;2.22;;;;;;;7.03;100.00;98621.50;5035790;28;20037;-69
2024/01/25 09:18:06;;;;;;;12.45;2.40;;;;;;;7.06;100.00;98617.56;5036802;28;20051;-65
2024/01/25 09:20:33;;;;;;;8.25;1.95;;;;;;;7.08;100.00;98620.91;5033587;28;20048;-67
2024/01/25 09:23:00;;;;;;;10.70;3.00;;;;;;;7.07;100.00;98619.25;5037415;28;20045;-69
2024/01/25 09:25:26;;;;;;;17.70;2.47;;;;;;;7.03;100.00;98616.94;5027730;28;20064;-68
2024/01/25 09:27:53;;;;;;;16.70;3.13;;;;;;;7.14;100.00;98620.09;5029127;28;20497;-68
2024/01/25 09:30:21;;;;;;;10.85;2.22;;;;;;;7.16;100.00;98616.19;5031228;28;20040;-67
2024/01/25 09:32:48;;;;;;;14.55;2.72;;;;;;;7.20;100.00;98613.94;5024105;28;20037;-65
2024/01/25 09:35:15;;;;;;;11.75;2.55;;;;;;;7.20;100.00;98623.88;5041153;28;20145;-65
2024/01/25 09:37:42;;;;;;;18.83;3.60;;;;;;;7.22;100.00;98630.72;5041367;28;20044;-66
2024/01/25 09:40:10;;;;;;;14.50;3.00;;;;;;;7.29;100.00;98631.59;5025821;28;20045;-65
2024/01/25 09:42:38;;;;;;;12.32;1.95;;;;;;;7.39;100.00;98636.63;5025810;28;20052;-65
2024/01/25 09:45:06;;;;;;;18.92;2.15;;;;;;;7.57;100.00;98637.94;5032426;28;20045;-66
2024/01/25 09:47:33;;;;;;;9.57;2.42;;;;;;;7.67;100.00;98627.59;5031518;28;20047;-66
2024/01/25 09:50:00;;;;;;;10.60;2.33;;;;;;;7.72;100.00;98635.09;5029150;28;20059;-66
2024/01/25 09:52:27;;;;;;;14.35;2.90;;;;;;;7.77;100.00;98639.84;5025241;28;20077;-66
2024/01/25 09:54:56;;;;;;;15.70;2.45;;;;;;;7.76;100.00;98638.22;5030312;28;20047;-66
2024/01/25 09:57:26;;;;;;;15.90;2.33;;;;;;;7.72;100.00;98640.47;5025412;28;20045;-66
2024/01/25 09:59:55;;;;;;;10.70;2.33;;;;;;;7.81;100.00;98649.22;5030296;28;20041;-66
2024/01/25 10:02:21;;;;;;;11.15;2.22;;;;;;;8.02;100.00;98653.66;5032590;28;20107;-66
2024/01/25 10:04:51;;;;;;;11.35;2.70;;;;;;;8.20;100.00;98650.38;5037264;28;20692;-66
2024/01/25 10:07:40;;;;;;;12.40;2.25;;;;;;;8.29;100.00;98660.97;5032833;28;20563;-67
2024/01/25 10:10:09;;;;;;;11.75;2.40;;;;;;;8.10;100.00;98654.50;5037658;28;20120;-65
2024/01/25 10:12:38;;;;;;;12.52;2.28;;;;;;;7.99;100.00;98656.75;5041364;28;20625;-65
2024/01/25 10:15:05;;;;;;;19.27;2.55;;;;;;;8.11;100.00;98654.28;5038289;28;20064;-67
2024/01/25 10:17:31;;;;;;;14.18;2.70;;;;;;;8.19;100.00;98650.56;5040927;28;20068;-67
2024/01/25 10:20:20;;;;;;;12.32;2.70;;;;;;;8.15;100.00;98644.72;5033318;28;20038;-65
2024/01/25 10:22:47;;;;;;;14.40;2.42;;;;;;;8.24;100.00;98648.09;5025038;28;20064;-66
2024/01/25 10:25:14;;;;;;;10.20;2.88;;;;;;;8.34;100.00;98650.38;5031730;28;20048;-65
2024/01/25 10:27:42;;;;;;;16.13;2.70;;;;;;;8.28;100.00;98643.09;5026596;28;20045;-64
2024/01/25 10:30:10;;;;;;;13.30;2.80;;;;;;;8.18;100.00;98638.94;5031962;28;20072;-66
2024/01/25 10:32:37;;;;;;;13.65;1.90;;;;;;;7.98;100.00;98638.91;5039888;28;20045;-66
2024/01/25 10:35:04;;;;;;;14.95;2.00;;;;;;;7.91;100.00;98638.88;5032878;28;20638;-64
2024/01/25 10:37:32;;;;;;;14.10;2.53;;;;;;;7.78;100.00;98638.84;5033360;28;20060;-65
2024/01/25 10:39:59;;;;;;;13.05;2.63;;;;;;;7.67;100.00;98643.78;5031321;28;20060;-65
2024/01/25 10:42:26;;;;;;;13.40;2.00;;;;;;;7.61;100.00;98641.91;5032753;28;20049;-65
2024/01/25 10:44:53;;;;;;;15.45;2.20;;;;;;;7.60;100.00;98634.00;5032173;28;20041;-64
2024/01/25 10:47:19;;;;;;;10.90;1.63;;;;;;;7.57;100.00;98631.72;5033564;28;20036;-65
2024/01/25 10:49:47;;;;;;;10.65;2.13;;;;;;;7.62;100.00;98635.47;5039385;28;20032;-66
2024/01/25 10:52:15;;;;;;;14.07;2.45;;;;;;;7.74;100.00;98618.72;5028319;28;20068;-65
2024/01/25 10:54:42;;;;;;;8.65;2.40;;;;;;;7.89;100.00;98623.94;5033494;28;20067;-66
2024/01/25 10:57:09;;;;;;;12.57;2.05;;;;;;;8.05;100.00;98628.13;5038035;28;20844;-65
2024/01/25 10:59:36;;;;;;;12.43;2.28;;;;;;;8.17;100.00;98614.84;5039194;28;20152;-66
2024/01/25 11:02:03;;;;;;;9.60;2.20;;;;;;;8.28;100.00;98619.66;5038096;28;20659;-65
2024/01/25 11:04:30;;;;;;;7.25;2.50;;;;;;;8.41;100.00;98623.41;5031783;28;20041;-65
2024/01/25 11:07:07;;;;;;;8.82;2.03;;;;;;;8.45;100.00;98619.25;5029724;28;20043;-66
2024/01/25 11:09:36;;;;;;;13.23;2.90;;;;;;;8.49;100.00;98612.41;5037844;28;20811;-66
2024/01/25 11:12:12;;;;;;;10.55;2.75;;;;;;;8.48;100.00;98615.31;5035517;28;20045;-65
2024/01/25 11:14:38;;;;;;;10.35;2.03;;;;;;;8.41;100.00;98610.72;5033551;28;20548;-67
2024/01/25 11:17:21;;;;;;;11.05;1.88;;;;;;;8.32;100.00;98609.25;5029220;28;20049;-66
2024/01/25 11:19:50;;;;;;;11.65;2.53;;;;;;;8.33;100.00;98603.66;5032165;28;20053;-65
2024/01/25 11:22:17;;;;;;;11.20;3.30;;;;;;;8.30;100.00;98598.66;5035608;28;20049;-64
2024/01/25 11:24:45;;;;;;;15.77;2.83;;;;;;;8.35;100.00;98597.22;5026050;28;20050;-65
2024/01/25 11:27:12;;;;;;;9.45;2.33;;;;;;;8.37;100.00;98584.38;5035313;28;20047;-66